Airfield :
LOGIN :

Register | Disclaimer

   EN    FR    IT 

 










Legend :    VFR   Marginal VFR   IFR   Intensive IFR   Very Intensive IFR
Visi :
Ceiling :
>= 8 km
>= 3000ft
5 to 8 km
1000 to 3000 ft
1500m to 5 km
500 to 1000 ft
800 to 1500m
200 to 500 ft
< 800m
< 200 ft
Symbols :   Thunderstorms  Fog  Heavy snow  Heavy precipitations  Wind > 20 kt
SIGMETs :     Misc.  Thunderstorms  Icing  Turbulence  Mountain Waves  Volcanic Ashes






- Airport Elevation : 458 ft


LFSI - St-Dizier

CURRENT METAR :
  • 261230Z AUTO 27013KT 9999 -RA FEW021/// SCT026/// BKN031/// ///TCU 10/07 Q1005

EXPIRED METARs :
  • 261200Z AUTO 27013KT 9999 -RA SCT021/// OVC031/// ///TCU 10/07 Q1005
  • 261130Z AUTO 26013KT 9999 -RA FEW016/// BKN022/// OVC035/// ///TCU 09/07 Q1005
  • 261100Z AUTO 26014KT 9999 RA BKN018/// OVC023/// ///CB 09/07 Q1005
  • 261030Z AUTO 26013KT 9999 -RA FEW016/// BKN022/// OVC032/// ///TCU 09/07 Q1005
  • 261000Z AUTO 25012KT 8000 RA FEW017/// SCT023/// BKN029/// ///CB 08/07 Q1006

TAF TAF LFSI
Valid from the 26 at 09:00 until the 27 at 09:00 UTC


260800Z 2609/2709 27012KT 9999 -RA OVC020
BECMG 2610/2612 BKN010
TEMPO 2609/2618 27015G30KT



MET'MAP, your aeronautical weather chart ! - Copyright ORBIFLY December 2007 - Disclaimer

ORBIFLY MET'MAP TEAM :

Programming & Development : Alexandra Zaïnal
Concept & original design : Baudouin d'Aumeries
Assistance for programming : Marc-Olivier Méhu
Technical & hardware support : Manuel Goepfert

Contact : metmap@orbifly.com




SOURCES & CREDITS :

   NOAA